createdAt,value
2017-05-29T00:00:43.534Z,0
2017-05-29T00:01:53.897Z,0
2017-05-29T00:03:04.296Z,0
2017-05-29T00:04:14.644Z,0
2017-05-29T00:05:25.006Z,0
2017-05-29T00:06:35.355Z,0
2017-05-29T00:07:45.735Z,0
2017-05-29T00:08:55.778Z,0
2017-05-29T00:10:06.127Z,0
2017-05-29T00:11:16.473Z,0
2017-05-29T00:12:26.494Z,0
2017-05-29T00:13:36.834Z,0
2017-05-29T00:14:47.188Z,0
2017-05-29T00:15:57.554Z,0
2017-05-29T00:17:07.907Z,0
2017-05-29T00:18:18.247Z,0
2017-05-29T00:19:28.600Z,0
2017-05-29T00:20:38.361Z,0
2017-05-29T00:21:48.102Z,0
2017-05-29T00:22:58.470Z,0
2017-05-29T00:24:08.813Z,0
2017-05-29T00:25:19.164Z,0
2017-05-29T00:26:29.570Z,0
2017-05-29T00:27:39.608Z,0
2017-05-29T00:28:49.970Z,0
2017-05-29T00:30:00.336Z,0
2017-05-29T00:31:10.383Z,0
2017-05-29T00:32:20.414Z,0
2017-05-29T00:33:30.131Z,0
2017-05-29T00:34:40.170Z,0
2017-05-29T00:35:50.200Z,0
2017-05-29T00:37:00.551Z,0
2017-05-29T00:38:10.272Z,0
2017-05-29T00:39:20.630Z,0
2017-05-29T00:40:31.001Z,0
2017-05-29T00:41:41.042Z,0
2017-05-29T00:42:51.382Z,0
2017-05-29T00:44:01.777Z,0
2017-05-29T00:45:12.143Z,0
2017-05-29T00:46:22.187Z,0
2017-05-29T00:47:31.912Z,0
2017-05-29T00:48:41.953Z,0
2017-05-29T00:49:52.310Z,0
2017-05-29T00:51:02.661Z,0
2017-05-29T00:52:12.375Z,0
2017-05-29T00:53:22.728Z,0
2017-05-29T00:54:33.094Z,0
2017-05-29T00:55:43.486Z,0
2017-05-29T00:56:53.516Z,0
2017-05-29T00:58:03.859Z,0
2017-05-29T00:59:13.901Z,0
2017-05-29T01:00:24.326Z,0
2017-05-29T01:01:34.680Z,0
2017-05-29T01:02:45.031Z,0
2017-05-29T01:03:55.377Z,0
2017-05-29T01:05:05.728Z,0
2017-05-29T01:06:16.080Z,0
2017-05-29T01:07:26.439Z,0
2017-05-29T01:08:36.788Z,0
2017-05-29T01:09:47.036Z,0
2017-05-29T01:10:57.077Z,0
2017-05-29T01:12:07.114Z,0
2017-05-29T01:13:17.771Z,0
2017-05-29T01:14:27.817Z,0
2017-05-29T01:15:38.161Z,0
2017-05-29T01:16:48.497Z,0
2017-05-29T01:17:58.554Z,0
2017-05-29T01:19:08.947Z,0
2017-05-29T01:20:18.999Z,0
2017-05-29T01:21:29.342Z,0
2017-05-29T01:22:39.709Z,0
2017-05-29T01:23:49.743Z,0
2017-05-29T01:24:59.794Z,0
2017-05-29T01:26:10.138Z,0
2017-05-29T01:27:20.494Z,0
2017-05-29T01:28:30.531Z,0
2017-05-29T01:29:40.585Z,0
2017-05-29T01:30:50.942Z,0
2017-05-29T01:32:00.969Z,0
2017-05-29T01:33:11.002Z,0
2017-05-29T01:34:21.039Z,0
2017-05-29T01:35:30.764Z,0
2017-05-29T01:36:40.816Z,0
2017-05-29T01:37:51.177Z,0
2017-05-29T01:39:01.531Z,0
2017-05-29T01:40:11.572Z,0
2017-05-29T01:41:21.920Z,0
2017-05-29T01:42:32.316Z,0
2017-05-29T01:43:42.683Z,0
2017-05-29T01:44:53.043Z,0
2017-05-29T01:46:03.086Z,0
2017-05-29T01:47:13.438Z,0
2017-05-29T01:48:23.477Z,0
2017-05-29T01:49:33.512Z,0
2017-05-29T01:50:43.869Z,0
2017-05-29T01:51:53.925Z,0
2017-05-29T01:53:04.263Z,0
2017-05-29T01:54:14.657Z,0
2017-05-29T01:55:24.700Z,0
2017-05-29T01:56:34.425Z,0
2017-05-29T01:57:44.444Z,0
2017-05-29T01:58:54.794Z,0
2017-05-29T02:00:04.836Z,0
2017-05-29T02:01:14.918Z,0
2017-05-29T02:02:24.958Z,0
2017-05-29T02:03:35.004Z,0
2017-05-29T02:04:45.363Z,0
2017-05-29T02:05:55.758Z,0
2017-05-29T02:07:06.112Z,0
2017-05-29T02:08:15.823Z,0
2017-05-29T02:09:26.167Z,0
2017-05-29T02:10:35.906Z,0
2017-05-29T02:11:46.254Z,0
2017-05-29T02:12:56.624Z,0
2017-05-29T02:14:06.979Z,0
2017-05-29T02:15:17.008Z,0
2017-05-29T02:16:27.354Z,0
2017-05-29T02:17:37.707Z,0
2017-05-29T02:18:48.053Z,0
2017-05-29T02:19:58.405Z,0
2017-05-29T02:21:08.747Z,4
2017-05-29T02:22:19.112Z,4
2017-05-29T02:23:29.507Z,4
2017-05-29T02:24:39.858Z,4
2017-05-29T02:25:50.208Z,0
2017-05-29T02:27:00.557Z,4
2017-05-29T02:28:10.924Z,4
2017-05-29T02:29:21.320Z,4
2017-05-29T02:30:31.682Z,4
2017-05-29T02:31:42.042Z,4
2017-05-29T02:32:52.386Z,8
2017-05-29T02:34:02.478Z,8
2017-05-29T02:35:12.575Z,8
2017-05-29T02:36:22.920Z,8
2017-05-29T02:37:33.255Z,12
2017-05-29T02:38:43.624Z,16
2017-05-29T02:39:53.972Z,20
2017-05-29T02:41:04.321Z,20
2017-05-29T02:42:14.362Z,24
2017-05-29T02:43:24.417Z,28
2017-05-29T02:44:34.454Z,32
2017-05-29T02:45:44.803Z,36
2017-05-29T02:46:55.171Z,44
2017-05-29T02:48:05.548Z,52
2017-05-29T02:49:15.279Z,60
2017-05-29T02:50:25.324Z,68
2017-05-29T02:51:35.665Z,80
2017-05-29T02:52:46.077Z,88
2017-05-29T02:53:56.428Z,96
2017-05-29T02:55:06.789Z,112
2017-05-29T02:56:17.157Z,128
2017-05-29T02:57:27.182Z,140
2017-05-29T02:58:37.546Z,156
2017-05-29T02:59:47.899Z,176
2017-05-29T03:00:57.950Z,192
2017-05-29T03:02:07.971Z,212
2017-05-29T03:33:23.831Z,1008
2017-05-29T03:34:33.855Z,1040
2017-05-29T03:35:44.192Z,1072
2017-05-29T03:36:54.548Z,1108
2017-05-29T03:38:04.890Z,1140
2017-05-29T03:39:14.968Z,1176
2017-05-29T03:40:25.314Z,1208
2017-05-29T03:41:35.659Z,1240
2017-05-29T03:42:46.006Z,1268
2017-05-29T03:43:56.365Z,1296
2017-05-29T03:45:06.130Z,1324
2017-05-29T03:46:16.167Z,1352
2017-05-29T03:47:26.514Z,1380
2017-05-29T03:48:36.532Z,1412
2017-05-29T03:49:46.576Z,1448
2017-05-29T03:50:56.978Z,1472
2017-05-29T03:52:07.324Z,1472
2017-05-29T03:53:17.350Z,1480
2017-05-29T03:54:27.742Z,1452
2017-05-29T03:55:37.462Z,1472
2017-05-29T03:56:47.838Z,1516
2017-05-29T03:57:58.186Z,1616
2017-05-29T03:59:08.238Z,1652
2017-05-29T04:00:18.797Z,1736
2017-05-29T04:01:28.844Z,1812
2017-05-29T04:02:39.237Z,1856
2017-05-29T04:03:49.598Z,1892
2017-05-29T04:04:59.948Z,1932
2017-05-29T04:06:10.297Z,1972
2017-05-29T04:07:20.660Z,2008
2017-05-29T04:08:30.430Z,2052
2017-05-29T04:09:40.480Z,2104
2017-05-29T04:10:50.836Z,2168
2017-05-29T04:12:01.173Z,2220
2017-05-29T04:13:11.517Z,2292
2017-05-29T04:14:21.911Z,2328
2017-05-29T04:15:31.964Z,2376
2017-05-29T04:16:42.315Z,2368
2017-05-29T04:17:52.726Z,2772
2017-05-29T04:19:02.773Z,6920
2017-05-29T04:20:13.127Z,12408
2017-05-29T04:21:23.153Z,15296
2017-05-29T04:22:33.495Z,16384
2017-05-29T04:23:43.858Z,17824
2017-05-29T04:24:53.905Z,18112
2017-05-29T04:26:04.300Z,18080
2017-05-29T04:27:14.351Z,18880
2017-05-29T04:28:24.700Z,18784
2017-05-29T04:29:35.045Z,18208
2017-05-29T04:30:45.100Z,18240
2017-05-29T04:31:54.891Z,17792
2017-05-29T04:33:05.259Z,16512
2017-05-29T04:34:15.311Z,17152
2017-05-29T04:35:25.659Z,18624
2017-05-29T04:36:36.018Z,19168
2017-05-29T04:37:45.820Z,17568
2017-05-29T04:38:56.187Z,18304
2017-05-29T04:40:06.568Z,17344
2017-05-29T04:41:16.934Z,17888
2017-05-29T04:42:27.296Z,16288
2017-05-29T04:43:37.653Z,15488
2017-05-29T04:44:48.009Z,16736
2017-05-29T04:45:58.117Z,13880
2017-05-29T04:47:08.185Z,16192
2017-05-29T04:48:18.216Z,17280
2017-05-29T04:49:28.569Z,16512
2017-05-29T04:50:38.606Z,15232
2017-05-29T04:51:48.350Z,12340
2017-05-29T04:52:58.695Z,11608
2017-05-29T04:54:09.042Z,8740
2017-05-29T04:55:19.413Z,10900
2017-05-29T04:56:29.769Z,9748
2017-05-29T04:57:40.126Z,7224
2017-05-29T04:58:50.473Z,7580
2017-05-29T05:00:00.828Z,6340
2017-05-29T05:01:11.230Z,6360
2017-05-29T05:02:21.582Z,5484
2017-05-29T05:03:31.935Z,5364
2017-05-29T05:04:42.290Z,7496
2017-05-29T05:05:52.348Z,7392
2017-05-29T05:07:02.763Z,10112
2017-05-29T05:08:13.115Z,13684
2017-05-29T05:09:23.165Z,14756
2017-05-29T05:10:33.213Z,15136
2017-05-29T05:11:43.582Z,13076
2017-05-29T05:12:53.933Z,14580
2017-05-29T05:14:03.983Z,15008
2017-05-29T05:15:14.333Z,15584
2017-05-29T05:16:24.688Z,14604
2017-05-29T05:17:35.288Z,14556
2017-05-29T05:18:45.689Z,15200
2017-05-29T05:19:55.738Z,15424
2017-05-29T05:21:05.776Z,16032
2017-05-29T05:22:16.132Z,16384
2017-05-29T05:23:26.166Z,15808
2017-05-29T05:24:36.580Z,15936
2017-05-29T05:25:46.948Z,16224
2017-05-29T05:26:57.002Z,16224
2017-05-29T05:28:07.072Z,16256
2017-05-29T05:29:17.429Z,16288
2017-05-29T05:30:27.838Z,16160
2017-05-29T05:31:38.192Z,16544
2017-05-29T05:32:48.230Z,16640
2017-05-29T05:33:58.581Z,16480
2017-05-29T05:35:08.926Z,16192
2017-05-29T05:36:18.973Z,16480
2017-05-29T05:37:29.327Z,15392
2017-05-29T05:38:39.413Z,14368
2017-05-29T05:39:49.472Z,15520
2017-05-29T05:40:59.838Z,14704
2017-05-29T05:42:09.957Z,14584
2017-05-29T05:43:19.989Z,14976
2017-05-29T05:44:30.043Z,12884
2017-05-29T05:45:40.089Z,13572
2017-05-29T05:46:50.140Z,13932
2017-05-29T05:48:00.503Z,16128
2017-05-29T05:49:10.869Z,15808
2017-05-29T05:50:21.217Z,16512
2017-05-29T05:51:31.592Z,16512
2017-05-29T05:52:41.955Z,16608
2017-05-29T05:53:52.355Z,16448
2017-05-29T05:55:02.400Z,16288
2017-05-29T05:56:12.747Z,15968
2017-05-29T05:57:22.789Z,16320
2017-05-29T05:58:33.162Z,16448
2017-05-29T05:59:43.674Z,16448
2017-05-29T06:00:54.029Z,16288
2017-05-29T06:02:04.085Z,16192
2017-05-29T06:03:14.436Z,15936
2017-05-29T06:04:24.814Z,15424
2017-05-29T06:05:34.901Z,15328
2017-05-29T06:06:45.259Z,15328
2017-05-29T06:07:55.601Z,14944
2017-05-29T06:09:05.967Z,14172
2017-05-29T06:10:16.322Z,13632
2017-05-29T06:11:26.429Z,13596
2017-05-29T06:12:36.473Z,11096
2017-05-29T06:13:46.838Z,12160
2017-05-29T06:14:57.210Z,9676
2017-05-29T06:16:07.563Z,6860
2017-05-29T06:17:17.968Z,5904
2017-05-29T06:18:28.321Z,6328
2017-05-29T06:19:38.360Z,6400
2017-05-29T06:20:48.714Z,7824
2017-05-29T06:21:59.056Z,10396
2017-05-29T06:23:09.433Z,11380
2017-05-29T06:24:19.478Z,11632
2017-05-29T06:25:29.832Z,11084
2017-05-29T06:26:39.862Z,9900
2017-05-29T06:27:50.246Z,9716
2017-05-29T06:29:00.606Z,8844
2017-05-29T06:30:10.950Z,8248
2017-05-29T06:31:21.311Z,8252
2017-05-29T06:32:31.359Z,7672
2017-05-29T06:33:41.725Z,7520
2017-05-29T06:34:51.792Z,7452
2017-05-29T06:36:01.215Z,7816
2017-05-29T06:37:11.577Z,8252
2017-05-29T06:38:21.643Z,8092
2017-05-29T06:39:32.007Z,8312
2017-05-29T06:40:42.381Z,8852
2017-05-29T06:41:52.735Z,8168
2017-05-29T06:43:02.790Z,8468
2017-05-29T06:44:13.153Z,8364
2017-05-29T06:45:23.204Z,8100
2017-05-29T06:46:33.571Z,8736
2017-05-29T06:47:43.646Z,8564
2017-05-29T06:48:54.016Z,8252
2017-05-29T06:50:04.082Z,8064
2017-05-29T06:51:14.115Z,7848
2017-05-29T06:52:24.539Z,7764
2017-05-29T06:53:34.884Z,7724
2017-05-29T06:54:44.933Z,7604
2017-05-29T06:55:55.286Z,7400
2017-05-29T06:57:05.652Z,7264
2017-05-29T06:58:16.001Z,7040
2017-05-29T06:59:26.418Z,6852
2017-05-29T07:00:36.447Z,6684
2017-05-29T07:01:46.488Z,6612
2017-05-29T07:02:56.530Z,6464
2017-05-29T07:04:06.892Z,6312
2017-05-29T07:05:17.300Z,5724
2017-05-29T07:06:27.691Z,5096
2017-05-29T07:07:37.757Z,4932
2017-05-29T07:08:48.131Z,4900
2017-05-29T07:09:58.500Z,4916
2017-05-29T07:11:08.916Z,4920
2017-05-29T07:12:19.272Z,4888
2017-05-29T07:13:29.638Z,4888
2017-05-29T07:14:39.992Z,4884
2017-05-29T07:15:50.344Z,4936
2017-05-29T07:17:00.394Z,4960
2017-05-29T07:18:10.121Z,4832
2017-05-29T07:19:20.187Z,4916
2017-05-29T07:20:30.742Z,4728
2017-05-29T07:21:41.105Z,4724
2017-05-29T07:22:51.757Z,4848
2017-05-29T07:24:02.115Z,5076
2017-05-29T07:25:12.459Z,5256
2017-05-29T07:26:22.810Z,5360
2017-05-29T07:27:32.842Z,5332
2017-05-29T07:28:43.272Z,5596
2017-05-29T07:29:53.630Z,5748
2017-05-29T07:31:03.667Z,5876
2017-05-29T07:32:14.035Z,5372
2017-05-29T07:33:24.413Z,5744
2017-05-29T07:34:34.528Z,6128
2017-05-29T07:35:44.575Z,6152
2017-05-29T07:36:54.617Z,6204
2017-05-29T07:38:04.686Z,6168
2017-05-29T07:39:14.750Z,6284
2017-05-29T07:40:25.174Z,6332
2017-05-29T07:41:35.552Z,6364
2017-05-29T07:42:45.908Z,6384
2017-05-29T07:43:55.947Z,6400
2017-05-29T07:45:05.670Z,6376
2017-05-29T07:46:16.031Z,6368
2017-05-29T07:47:26.072Z,6320
2017-05-29T07:48:36.115Z,6276
2017-05-29T07:49:46.462Z,6232
2017-05-29T07:50:56.488Z,6204
2017-05-29T07:52:06.834Z,6164
2017-05-29T07:53:17.199Z,6152
2017-05-29T07:54:27.554Z,6144
2017-05-29T07:55:37.920Z,6136
2017-05-29T07:56:47.957Z,6120
2017-05-29T07:57:58.054Z,6120
2017-05-29T07:59:08.409Z,6112
2017-05-29T08:00:18.221Z,6088
2017-05-29T08:01:28.607Z,6076
2017-05-29T08:02:38.946Z,6048
2017-05-29T08:03:49.304Z,5660
2017-05-29T08:04:59.673Z,6004
2017-05-29T08:06:10.021Z,5988
2017-05-29T08:07:20.073Z,5768
2017-05-29T08:08:30.111Z,5704
2017-05-29T08:09:40.512Z,5904
2017-05-29T08:10:50.873Z,5916
2017-05-29T08:12:00.934Z,5948
2017-05-29T08:13:11.292Z,5976
2017-05-29T08:14:21.655Z,5972
2017-05-29T08:15:31.764Z,6008
2017-05-29T08:16:41.477Z,6068
2017-05-29T08:17:51.834Z,6132
2017-05-29T08:19:01.890Z,6188
2017-05-29T08:20:11.912Z,6172
2017-05-29T08:21:22.337Z,4868
2017-05-29T08:22:32.370Z,4684
2017-05-29T08:23:42.413Z,4552
2017-05-29T08:24:52.470Z,4864
2017-05-29T08:26:02.815Z,4628
2017-05-29T08:27:12.296Z,3776
2017-05-29T08:28:22.648Z,3668
2017-05-29T08:29:32.706Z,4276
2017-05-29T08:30:42.766Z,4532
2017-05-29T08:31:52.815Z,5660
2017-05-29T08:33:03.235Z,6044
2017-05-29T08:34:13.594Z,5948
2017-05-29T08:35:23.960Z,5920
2017-05-29T08:36:34.331Z,5892
2017-05-29T08:37:44.699Z,5908
2017-05-29T08:38:54.431Z,5880
2017-05-29T08:40:04.482Z,5864
2017-05-29T08:41:14.846Z,5852
2017-05-29T08:42:25.206Z,5816
2017-05-29T08:43:35.557Z,5800
2017-05-29T08:44:45.934Z,5808
2017-05-29T08:45:56.292Z,5816
2017-05-29T08:47:06.654Z,5828
2017-05-29T08:48:17.039Z,5840
2017-05-29T08:49:27.397Z,5848
2017-05-29T08:50:37.758Z,5856
2017-05-29T08:51:48.113Z,5868
2017-05-29T08:52:58.476Z,5872
2017-05-29T08:54:08.841Z,5856
2017-05-29T08:55:18.877Z,5868
2017-05-29T08:56:29.289Z,5848
2017-05-29T08:57:39.663Z,5816
2017-05-29T08:58:49.377Z,5856
2017-05-29T08:59:59.186Z,5880
2017-05-29T09:01:09.553Z,5888
2017-05-29T09:02:19.947Z,5896
2017-05-29T09:03:30.313Z,5916
2017-05-29T09:04:40.682Z,5884
2017-05-29T09:05:50.730Z,5896
2017-05-29T09:07:00.774Z,5936
2017-05-29T09:08:10.860Z,5948
2017-05-29T09:09:20.900Z,5960
2017-05-29T09:10:30.938Z,5968
2017-05-29T09:11:41.317Z,5984
2017-05-29T09:12:52.019Z,6004
2017-05-29T09:14:02.511Z,6016
2017-05-29T09:15:13.295Z,6024
2017-05-29T09:16:23.574Z,6036
2017-05-29T09:17:34.220Z,6076
2017-05-29T09:18:44.017Z,6092
2017-05-29T09:19:54.109Z,6120
2017-05-29T09:21:04.488Z,6144
2017-05-29T09:22:14.847Z,6160
2017-05-29T09:23:25.237Z,6164
2017-05-29T09:24:35.285Z,6176
2017-05-29T09:25:45.657Z,6196
2017-05-29T09:26:55.687Z,6216
2017-05-29T09:28:06.040Z,6240
2017-05-29T09:29:16.408Z,6264
2017-05-29T09:30:26.754Z,6264
2017-05-29T09:31:36.784Z,6284
2017-05-29T09:32:47.156Z,6308
2017-05-29T09:33:57.516Z,6340
2017-05-29T09:35:07.870Z,6356
2017-05-29T09:36:18.236Z,6352
2017-05-29T09:37:28.636Z,6364
2017-05-29T09:38:39.018Z,6396
2017-05-29T09:39:48.750Z,6404
2017-05-29T09:40:58.805Z,6440
2017-05-29T09:42:08.857Z,6452
2017-05-29T09:43:18.908Z,6468
2017-05-29T09:44:29.279Z,6504
2017-05-29T09:45:39.631Z,6532
2017-05-29T09:46:49.991Z,6548
2017-05-29T09:48:00.434Z,6556
2017-05-29T09:49:10.474Z,6596
2017-05-29T09:50:20.833Z,6608
2017-05-29T09:51:31.242Z,6624
2017-05-29T09:52:41.609Z,6660
2017-05-29T09:53:51.717Z,6672
2017-05-29T09:55:01.805Z,6700
2017-05-29T09:56:11.866Z,6720
2017-05-29T09:57:22.217Z,6756
2017-05-29T09:58:32.570Z,6756
2017-05-29T09:59:42.968Z,6784
2017-05-29T10:00:53.014Z,6780
2017-05-29T10:02:03.088Z,6828
2017-05-29T10:03:13.460Z,6876
2017-05-29T10:04:23.815Z,6900
2017-05-29T10:05:33.548Z,6940
2017-05-29T10:06:43.913Z,6956
2017-05-29T10:07:54.279Z,6976
2017-05-29T10:09:04.023Z,6980
2017-05-29T10:10:14.393Z,6992
2017-05-29T10:11:24.800Z,7012
2017-05-29T10:12:34.844Z,7044
2017-05-29T10:13:44.889Z,7108
2017-05-29T10:14:55.247Z,7172
2017-05-29T10:16:05.290Z,7220
2017-05-29T10:17:15.698Z,7228
2017-05-29T10:18:26.053Z,7236
2017-05-29T10:19:36.394Z,7256
2017-05-29T10:20:46.774Z,7300
2017-05-29T10:21:57.116Z,7268
2017-05-29T10:23:07.157Z,7220
2017-05-29T10:24:17.539Z,7300
2017-05-29T10:25:27.897Z,7140
2017-05-29T10:26:38.240Z,6936
2017-05-29T10:27:48.598Z,6636
2017-05-29T10:28:58.678Z,6700
2017-05-29T10:30:09.041Z,7288
2017-05-29T10:31:19.393Z,7032
2017-05-29T10:32:29.762Z,6208
2017-05-29T10:33:40.106Z,6504
2017-05-29T10:34:50.522Z,6368
2017-05-29T10:36:00.881Z,6656
2017-05-29T10:37:11.241Z,6504
2017-05-29T10:38:21.517Z,7080
2017-05-29T10:39:31.861Z,7268
2017-05-29T10:40:42.278Z,7668
2017-05-29T10:41:52.342Z,7664
2017-05-29T10:43:02.688Z,7556
2017-05-29T10:44:12.738Z,7612
2017-05-29T10:45:23.089Z,7524
2017-05-29T10:46:33.490Z,7680
2017-05-29T10:47:43.519Z,7616
2017-05-29T10:48:53.894Z,7572
2017-05-29T10:50:04.269Z,7528
2017-05-29T10:51:14.318Z,7572
2017-05-29T10:52:24.428Z,7592
2017-05-29T10:53:33.837Z,7564
2017-05-29T10:54:43.884Z,7564
2017-05-29T10:55:53.925Z,7592
2017-05-29T10:57:03.655Z,7588
2017-05-29T10:58:13.748Z,7524
2017-05-29T10:59:23.785Z,7620
2017-05-29T11:00:34.164Z,7592
2017-05-29T11:01:44.536Z,7644
2017-05-29T11:02:54.585Z,7712
2017-05-29T11:04:04.380Z,7764
2017-05-29T11:05:14.746Z,7776
2017-05-29T11:06:25.110Z,7780
2017-05-29T11:07:35.166Z,7768
2017-05-29T11:08:45.212Z,7768
2017-05-29T11:09:55.310Z,7800
2017-05-29T11:11:05.342Z,7804
2017-05-29T11:12:15.682Z,7868
2017-05-29T11:13:25.725Z,7876
2017-05-29T11:14:36.108Z,7880
2017-05-29T11:15:46.195Z,7864
2017-05-29T11:16:56.580Z,7896
2017-05-29T11:18:06.929Z,7872
2017-05-29T11:19:17.343Z,7916
2017-05-29T11:20:27.394Z,7904
2017-05-29T11:21:37.792Z,7876
2017-05-29T11:22:47.865Z,7880
2017-05-29T11:23:57.302Z,7840
2017-05-29T11:25:07.346Z,7816
2017-05-29T11:26:17.698Z,7876
2017-05-29T11:27:28.125Z,7676
2017-05-29T11:28:38.479Z,7036
2017-05-29T11:29:48.830Z,7284
2017-05-29T11:30:59.202Z,7168
2017-05-29T11:32:09.570Z,7568
2017-05-29T11:33:19.980Z,8032
2017-05-29T11:34:30.327Z,8076
2017-05-29T11:35:40.669Z,8044
2017-05-29T11:36:51.026Z,8052
2017-05-29T11:38:01.052Z,7776
2017-05-29T11:39:11.489Z,8064
2017-05-29T11:40:21.851Z,8116
2017-05-29T11:41:32.240Z,8124
2017-05-29T11:42:42.597Z,8168
2017-05-29T11:43:52.949Z,8212
2017-05-29T11:45:03.314Z,8188
2017-05-29T11:46:13.671Z,8144
2017-05-29T11:47:23.717Z,8248
2017-05-29T11:48:34.089Z,8244
2017-05-29T11:49:44.455Z,8196
2017-05-29T11:50:54.285Z,8152
2017-05-29T11:52:04.647Z,8280
2017-05-29T11:53:14.680Z,8236
2017-05-29T11:54:25.027Z,8236
2017-05-29T11:55:35.380Z,8188
2017-05-29T11:56:46.042Z,8208
2017-05-29T11:57:56.087Z,8032
2017-05-29T11:59:06.506Z,7988
2017-05-29T12:00:16.871Z,7976
2017-05-29T12:01:27.252Z,7900
2017-05-29T12:02:37.699Z,7788
2017-05-29T12:03:48.105Z,7432
2017-05-29T12:04:58.158Z,7096
2017-05-29T12:06:08.189Z,7328
2017-05-29T12:07:18.565Z,7420
2017-05-29T12:08:28.918Z,7184
2017-05-29T12:09:39.278Z,7584
2017-05-29T12:10:49.647Z,7496
2017-05-29T12:12:00.004Z,7580
2017-05-29T12:13:09.737Z,7580
2017-05-29T12:14:20.153Z,7452
2017-05-29T12:15:30.505Z,7364
2017-05-29T12:16:40.880Z,7384
2017-05-29T12:17:50.927Z,7540
2017-05-29T12:19:01.289Z,7552
2017-05-29T12:20:11.716Z,7688
2017-05-29T12:21:22.076Z,7528
2017-05-29T12:22:32.439Z,7576
2017-05-29T12:23:42.794Z,7552
2017-05-29T12:24:52.850Z,7612
2017-05-29T12:26:03.255Z,7656
2017-05-29T12:27:13.880Z,7616
2017-05-29T12:28:23.940Z,7620
2017-05-29T12:29:34.314Z,7604
2017-05-29T12:30:44.697Z,7556
2017-05-29T12:31:55.069Z,7540
2017-05-29T12:33:05.450Z,7524
2017-05-29T12:34:15.811Z,7504
2017-05-29T12:35:25.560Z,7492
2017-05-29T12:36:35.917Z,7432
2017-05-29T12:37:46.278Z,7452
2017-05-29T12:38:55.703Z,7444
2017-05-29T12:40:05.765Z,7432
2017-05-29T12:41:16.122Z,7420
2017-05-29T12:42:26.169Z,7412
2017-05-29T12:43:36.576Z,7392
2017-05-29T12:44:46.947Z,7344
2017-05-29T12:45:57.500Z,7324
2017-05-29T12:47:07.881Z,7324
2017-05-29T12:48:18.433Z,7296
2017-05-29T12:49:28.541Z,7320
2017-05-29T12:50:38.601Z,7288
2017-05-29T12:51:48.959Z,7284
2017-05-29T12:52:59.019Z,7252
2017-05-29T12:54:09.381Z,7252
2017-05-29T12:55:19.111Z,7280
2017-05-29T12:56:29.467Z,7264
2017-05-29T12:57:39.832Z,7232
2017-05-29T12:58:49.888Z,7208
2017-05-29T13:00:00.248Z,7144
2017-05-29T13:01:10.664Z,7140
2017-05-29T13:02:20.705Z,7152
2017-05-29T13:03:31.076Z,7184
2017-05-29T13:04:41.449Z,7184
2017-05-29T13:05:51.760Z,7164
2017-05-29T13:07:02.167Z,7140
2017-05-29T13:08:12.208Z,7132
2017-05-29T13:09:22.571Z,7108
2017-05-29T13:10:32.937Z,7132
2017-05-29T13:11:43.324Z,7116
2017-05-29T13:12:53.424Z,7108
2017-05-29T13:14:03.790Z,7100
2017-05-29T13:15:14.155Z,7092
2017-05-29T13:16:24.521Z,7092
2017-05-29T13:17:34.942Z,7076
2017-05-29T13:18:45.348Z,7052
2017-05-29T13:19:55.730Z,7040
2017-05-29T13:21:05.458Z,7024
2017-05-29T13:22:15.504Z,6996
2017-05-29T13:23:25.871Z,6996
2017-05-29T13:24:35.664Z,6988
2017-05-29T13:25:46.034Z,7000
2017-05-29T13:26:56.402Z,6988
2017-05-29T13:28:06.633Z,6972
2017-05-29T13:29:16.712Z,6968
2017-05-29T13:30:26.829Z,6952
2017-05-29T13:31:36.909Z,6924
2017-05-29T13:32:47.273Z,6904
2017-05-29T13:33:57.645Z,6892
2017-05-29T13:35:07.694Z,6876
2017-05-29T13:36:17.805Z,6836
2017-05-29T13:37:28.166Z,6808
2017-05-29T13:38:37.895Z,6748
2017-05-29T13:39:47.931Z,6740
2017-05-29T13:40:58.014Z,6712
2017-05-29T13:42:08.648Z,6688
2017-05-29T13:43:18.999Z,6668
2017-05-29T13:44:29.373Z,6656
2017-05-29T13:45:39.744Z,6640
2017-05-29T13:46:49.800Z,6604
2017-05-29T13:48:00.210Z,6584
2017-05-29T13:49:10.256Z,6588
2017-05-29T13:50:20.621Z,6560
2017-05-29T13:51:30.993Z,6540
2017-05-29T13:52:41.451Z,6488
2017-05-29T13:53:51.877Z,6416
2017-05-29T13:55:01.921Z,6500
2017-05-29T13:56:12.291Z,6460
2017-05-29T13:57:22.663Z,6460
2017-05-29T13:58:32.396Z,6448
2017-05-29T13:59:42.489Z,6364
2017-05-29T14:00:52.851Z,6236
2017-05-29T14:02:03.223Z,6384
2017-05-29T14:03:13.271Z,6372
2017-05-29T14:04:23.644Z,6340
2017-05-29T14:05:33.891Z,6272
2017-05-29T14:06:44.471Z,6260
2017-05-29T14:07:54.851Z,6172
2017-05-29T14:09:04.890Z,6196
2017-05-29T14:10:15.144Z,6156
2017-05-29T14:11:25.564Z,6196
2017-05-29T14:12:35.915Z,6220
2017-05-29T14:13:46.313Z,6224
2017-05-29T14:14:56.381Z,6204
2017-05-29T14:16:06.756Z,6172
2017-05-29T14:17:17.184Z,6140
2017-05-29T14:18:27.256Z,6080
2017-05-29T14:19:37.619Z,6032
2017-05-29T14:20:47.648Z,6120
2017-05-29T14:21:57.684Z,6100
2017-05-29T14:23:08.303Z,6064
2017-05-29T14:24:18.364Z,6044
2017-05-29T14:25:28.718Z,6012
2017-05-29T14:26:38.784Z,5992
2017-05-29T14:27:48.838Z,5968
2017-05-29T14:28:58.935Z,5940
2017-05-29T14:30:08.702Z,5928
2017-05-29T14:31:19.077Z,5900
2017-05-29T14:32:29.140Z,5912
2017-05-29T14:33:39.518Z,5904
2017-05-29T14:34:49.620Z,5880
2017-05-29T14:35:59.981Z,5868
2017-05-29T14:37:10.038Z,5860
2017-05-29T14:38:20.383Z,5824
2017-05-29T14:39:30.742Z,5800
2017-05-29T14:40:41.340Z,5804
2017-05-29T14:41:51.703Z,5784
2017-05-29T14:43:01.763Z,5740
2017-05-29T14:44:12.220Z,5720
2017-05-29T14:45:22.588Z,5700
2017-05-29T14:46:32.069Z,5664
2017-05-29T14:47:42.115Z,5664
2017-05-29T14:48:52.165Z,5648
2017-05-29T14:50:02.544Z,5640
2017-05-29T14:51:12.641Z,5624
2017-05-29T14:52:23.066Z,5620
2017-05-29T14:53:33.413Z,5604
2017-05-29T14:54:43.518Z,5596
2017-05-29T14:55:53.896Z,5572
2017-05-29T14:57:04.267Z,5564
2017-05-29T14:58:14.398Z,5544
2017-05-29T14:59:24.771Z,5520
2017-05-29T15:00:34.813Z,5488
2017-05-29T15:01:45.199Z,5476
2017-05-29T15:02:55.563Z,5476
2017-05-29T15:04:05.983Z,5472
2017-05-29T15:05:16.342Z,5460
2017-05-29T15:06:26.398Z,5432
2017-05-29T15:07:36.451Z,5436
2017-05-29T15:08:46.497Z,5404
2017-05-29T15:09:56.558Z,5332
2017-05-29T15:11:06.906Z,5244
2017-05-29T15:12:16.973Z,5216
2017-05-29T15:13:27.358Z,5284
2017-05-29T15:14:37.734Z,5260
2017-05-29T15:15:47.851Z,5296
2017-05-29T15:16:57.918Z,5272
2017-05-29T15:18:07.986Z,5264
2017-05-29T15:19:18.379Z,5240
2017-05-29T15:20:28.749Z,5184
2017-05-29T15:21:38.856Z,5236
2017-05-29T15:22:48.905Z,5224
2017-05-29T15:23:59.263Z,5200
2017-05-29T15:25:09.004Z,5192
2017-05-29T15:26:19.388Z,5164
2017-05-29T15:27:29.804Z,5104
2017-05-29T15:28:40.171Z,5128
2017-05-29T15:29:50.567Z,5092
2017-05-29T15:31:00.924Z,5064
2017-05-29T15:32:10.662Z,5028
2017-05-29T15:33:21.057Z,4936
2017-05-29T15:34:31.431Z,4864
2017-05-29T15:35:41.794Z,4836
2017-05-29T15:36:51.839Z,4868
2017-05-29T15:38:02.211Z,4904
2017-05-29T15:39:12.632Z,4896
2017-05-29T15:40:23.001Z,4888
2017-05-29T15:41:33.357Z,4808
2017-05-29T15:42:43.155Z,4764
2017-05-29T15:43:53.511Z,4752
2017-05-29T15:45:03.928Z,4856
2017-05-29T15:46:13.969Z,4812
2017-05-29T15:47:24.335Z,4760
2017-05-29T15:48:34.403Z,4708
2017-05-29T15:49:44.789Z,4720
2017-05-29T15:50:54.590Z,4720
2017-05-29T15:52:04.971Z,4708
2017-05-29T15:53:15.017Z,4660
2017-05-29T15:54:25.055Z,4608
2017-05-29T15:55:35.415Z,4556
2017-05-29T15:56:45.485Z,4620
2017-05-29T15:57:55.864Z,4552
2017-05-29T15:59:05.918Z,4592
2017-05-29T16:00:16.291Z,4500
2017-05-29T16:01:26.681Z,4544
2017-05-29T16:02:37.099Z,4468
2017-05-29T16:03:47.462Z,4464
2017-05-29T16:04:57.829Z,4412
2017-05-29T16:06:08.190Z,4368
2017-05-29T16:07:17.609Z,4216
2017-05-29T16:08:28.032Z,4168
2017-05-29T16:09:38.394Z,4312
2017-05-29T16:10:48.755Z,4220
2017-05-29T16:11:58.496Z,4004
2017-05-29T16:13:08.840Z,3924
2017-05-29T16:14:19.246Z,4008
2017-05-29T16:15:29.619Z,3828
2017-05-29T16:16:39.990Z,3816
2017-05-29T16:17:50.129Z,3840
2017-05-29T16:19:00.492Z,3736